createdAt,value
2023-12-28T00:02:18.456Z,28.63
2023-12-28T00:04:45.256Z,24.47
2023-12-28T00:07:15.066Z,20.10
2023-12-28T00:09:42.110Z,16.47
2023-12-28T00:12:08.986Z,17.40
2023-12-28T00:14:35.717Z,19.87
2023-12-28T00:17:02.375Z,21.23
2023-12-28T00:19:29.183Z,23.20
2023-12-28T00:21:55.945Z,19.47
2023-12-28T00:24:22.907Z,14.80
2023-12-28T00:26:49.935Z,17.03
2023-12-28T00:29:16.693Z,13.73
2023-12-28T00:31:43.591Z,15.13
2023-12-28T00:34:10.528Z,18.80
2023-12-28T00:36:40.286Z,25.77
2023-12-28T00:39:07.017Z,23.17
2023-12-28T00:41:33.748Z,18.87
2023-12-28T00:44:01.785Z,18.93
2023-12-28T00:46:28.588Z,22.70
2023-12-28T00:48:56.702Z,20.40
2023-12-28T00:51:23.540Z,15.30
2023-12-28T00:53:51.303Z,17.57
2023-12-28T00:56:18.210Z,19.80
2023-12-28T00:58:45.151Z,25.07
2023-12-28T01:01:12.216Z,24.47
2023-12-28T01:03:39.149Z,29.50
2023-12-28T01:06:06.667Z,20.00
2023-12-28T01:08:35.214Z,19.10
2023-12-28T01:11:03.057Z,22.03
2023-12-28T01:13:30.138Z,13.47
2023-12-28T01:15:56.943Z,11.43
2023-12-28T01:18:23.828Z,11.83
2023-12-28T01:20:50.610Z,10.97
2023-12-28T01:23:17.385Z,13.40
2023-12-28T01:25:44.116Z,16.37
2023-12-28T01:28:10.903Z,12.67
2023-12-28T01:30:38.231Z,7.63
2023-12-28T01:33:05.701Z,7.70
2023-12-28T01:35:32.570Z,6.47
2023-12-28T01:38:01.601Z,6.90
2023-12-28T01:40:28.590Z,5.93
2023-12-28T01:42:55.397Z,7.37
2023-12-28T01:45:22.233Z,9.57
2023-12-28T01:47:52.703Z,8.83
2023-12-28T01:50:20.071Z,8.23
2023-12-28T01:52:47.874Z,9.07
2023-12-28T01:55:14.899Z,9.73
2023-12-28T01:57:41.818Z,11.17
2023-12-28T02:00:09.132Z,9.97
2023-12-28T02:02:37.252Z,10.77
2023-12-28T02:05:04.488Z,8.90
2023-12-28T02:07:33.379Z,15.87
2023-12-28T02:10:00.228Z,10.23
2023-12-28T02:12:27.121Z,7.37
2023-12-28T02:14:53.852Z,6.47
2023-12-28T02:17:34.512Z,5.93
2023-12-28T02:20:02.161Z,5.90
2023-12-28T02:22:38.949Z,8.77
2023-12-28T02:25:07.810Z,6.97
2023-12-28T02:27:44.861Z,7.13
2023-12-28T02:30:12.826Z,8.50
2023-12-28T02:32:53.677Z,11.77
2023-12-28T02:35:29.658Z,13.80
2023-12-28T02:37:59.616Z,6.73
2023-12-28T02:40:28.436Z,7.07
2023-12-28T02:42:55.644Z,7.40
2023-12-28T02:45:22.556Z,6.77
2023-12-28T02:47:49.357Z,7.47
2023-12-28T02:50:16.168Z,6.67
2023-12-28T02:52:42.891Z,8.43
2023-12-28T02:55:10.291Z,9.57
2023-12-28T02:57:39.115Z,10.73
2023-12-28T03:00:07.049Z,20.03
2023-12-28T03:02:34.056Z,16.00
2023-12-28T03:05:00.940Z,14.67
2023-12-28T03:07:27.856Z,13.80
2023-12-28T03:09:54.562Z,13.33
2023-12-28T03:12:21.320Z,15.10
2023-12-28T03:14:48.024Z,11.90
2023-12-28T03:17:15.033Z,10.23
2023-12-28T03:19:41.993Z,8.60
2023-12-28T03:22:08.852Z,5.93
2023-12-28T03:24:37.585Z,6.33
2023-12-28T03:27:05.613Z,7.67
2023-12-28T03:29:32.618Z,9.37
2023-12-28T03:32:00.225Z,9.37
2023-12-28T03:34:31.382Z,13.20
2023-12-28T03:37:01.055Z,11.93
2023-12-28T03:39:27.827Z,12.90
2023-12-28T03:41:54.784Z,14.37
2023-12-28T03:44:22.208Z,12.80
2023-12-28T03:46:50.238Z,12.97
2023-12-28T03:49:21.340Z,12.80
2023-12-28T03:51:50.243Z,12.03
2023-12-28T03:54:18.005Z,13.00
2023-12-28T03:56:45.170Z,7.53
2023-12-28T03:59:12.044Z,8.40
2023-12-28T04:01:38.927Z,9.67
2023-12-28T04:04:06.035Z,7.93
2023-12-28T04:06:33.343Z,7.07
2023-12-28T04:09:00.154Z,6.53
2023-12-28T04:11:26.883Z,6.83
2023-12-28T04:13:53.657Z,6.57
2023-12-28T04:16:20.358Z,7.83
2023-12-28T04:18:47.405Z,8.27
2023-12-28T04:21:15.076Z,7.83
2023-12-28T04:23:42.830Z,8.30
2023-12-28T04:26:09.857Z,9.53
2023-12-28T04:28:36.950Z,12.37
2023-12-28T04:31:08.001Z,10.33
2023-12-28T04:33:36.579Z,15.03
2023-12-28T04:36:07.351Z,21.47
2023-12-28T04:38:34.295Z,23.53
2023-12-28T04:41:02.126Z,20.73
2023-12-28T04:43:29.156Z,19.40
2023-12-28T04:45:55.989Z,17.30
2023-12-28T04:48:29.618Z,16.73
2023-12-28T04:50:56.465Z,18.20
2023-12-28T04:53:23.238Z,18.50
2023-12-28T04:55:49.940Z,24.63
2023-12-28T04:58:16.798Z,25.83
2023-12-28T05:00:44.054Z,20.07
2023-12-28T05:03:10.946Z,22.57
2023-12-28T05:05:37.699Z,22.63
2023-12-28T05:08:06.130Z,20.93
2023-12-28T05:10:32.825Z,20.13
2023-12-28T05:13:02.020Z,21.17
2023-12-28T05:15:30.302Z,20.90
2023-12-28T05:17:58.915Z,42.17
2023-12-28T05:20:26.050Z,78.67
2023-12-28T05:22:52.739Z,66.97
2023-12-28T05:25:19.427Z,52.33
2023-12-28T05:27:46.262Z,46.50
2023-12-28T05:30:13.683Z,45.93
2023-12-28T05:32:40.866Z,38.20
2023-12-28T05:35:08.500Z,29.20
2023-12-28T05:37:35.442Z,29.03
2023-12-28T05:40:02.346Z,31.00
2023-12-28T05:42:29.208Z,32.90
2023-12-28T05:44:55.982Z,33.27
2023-12-28T05:47:22.748Z,30.83
2023-12-28T05:49:49.808Z,29.53
2023-12-28T05:52:19.852Z,30.70
2023-12-28T05:54:47.041Z,26.87
2023-12-28T05:57:13.929Z,27.03
2023-12-28T05:59:43.442Z,26.00
2023-12-28T06:02:10.272Z,21.13
2023-12-28T06:04:37.200Z,25.03
2023-12-28T06:07:06.096Z,23.33
2023-12-28T06:09:33.878Z,27.67
2023-12-28T06:12:01.123Z,27.23
2023-12-28T06:14:28.110Z,27.60
2023-12-28T06:16:54.981Z,26.83
2023-12-28T06:19:22.104Z,24.40
2023-12-28T06:21:52.515Z,24.27
2023-12-28T06:24:19.335Z,23.33
2023-12-28T06:26:46.576Z,23.43
2023-12-28T06:29:13.473Z,25.23
2023-12-28T06:31:41.993Z,28.87
2023-12-28T06:34:09.603Z,30.50
2023-12-28T06:36:36.921Z,31.33
2023-12-28T06:39:04.687Z,31.87
2023-12-28T06:41:31.496Z,34.13
2023-12-28T06:43:58.184Z,37.43
2023-12-28T06:46:24.922Z,31.80
2023-12-28T06:48:51.773Z,36.53
2023-12-28T06:51:23.856Z,34.90
2023-12-28T06:53:51.243Z,35.70
2023-12-28T06:56:18.918Z,36.40
2023-12-28T06:58:45.928Z,35.50
2023-12-28T07:01:13.766Z,36.35
2023-12-28T07:03:42.226Z,46.78
2023-12-28T07:06:09.908Z,43.72
2023-12-28T07:08:37.720Z,55.05
2023-12-28T07:11:05.608Z,38.20
2023-12-28T07:13:33.336Z,37.00
2023-12-28T07:16:01.138Z,40.67
2023-12-28T07:18:29.446Z,32.58
2023-12-28T07:20:56.830Z,32.20
2023-12-28T07:23:23.515Z,35.35
2023-12-28T07:25:50.848Z,33.45
2023-12-28T07:28:18.108Z,35.35
2023-12-28T07:30:44.943Z,47.15
2023-12-28T07:33:12.210Z,72.95
2023-12-28T07:35:45.664Z,60.13
2023-12-28T07:38:13.086Z,50.08
2023-12-28T07:40:40.255Z,60.10
2023-12-28T07:43:07.068Z,54.08
2023-12-28T07:45:35.996Z,53.42
2023-12-28T07:48:03.721Z,49.03
2023-12-28T07:50:30.623Z,38.58
2023-12-28T07:52:57.814Z,31.40
2023-12-28T07:55:27.291Z,43.88
2023-12-28T07:57:55.528Z,38.95
2023-12-28T08:00:22.434Z,30.80
2023-12-28T08:02:49.145Z,33.92
2023-12-28T08:05:15.922Z,43.67
2023-12-28T08:07:42.648Z,35.35
2023-12-28T08:10:09.843Z,31.75
2023-12-28T08:12:37.616Z,32.65
2023-12-28T08:15:04.910Z,32.33
2023-12-28T08:17:32.728Z,35.22
2023-12-28T08:20:00.971Z,38.75
2023-12-28T08:22:29.367Z,39.75
2023-12-28T08:24:56.153Z,35.15
2023-12-28T08:27:22.963Z,33.00
2023-12-28T08:29:50.046Z,29.77
2023-12-28T08:32:18.480Z,30.92
2023-12-28T08:34:45.693Z,31.73
2023-12-28T08:37:12.608Z,31.27
2023-12-28T08:39:41.079Z,24.75
2023-12-28T08:42:09.011Z,33.78
2023-12-28T08:44:37.857Z,38.40
2023-12-28T08:47:05.258Z,32.33
2023-12-28T08:49:32.082Z,28.20
2023-12-28T08:51:58.823Z,30.73
2023-12-28T08:54:25.507Z,24.63
2023-12-28T08:56:53.713Z,18.30
2023-12-28T08:59:22.525Z,21.70
2023-12-28T09:01:49.677Z,18.85
2023-12-28T09:04:20.768Z,8.93
2023-12-28T09:06:47.564Z,10.10
2023-12-28T09:09:14.361Z,10.77
2023-12-28T09:11:41.076Z,23.67
2023-12-28T09:14:07.788Z,20.80
2023-12-28T09:16:34.529Z,22.70
2023-12-28T09:19:01.376Z,25.85
2023-12-28T09:21:28.399Z,20.30
2023-12-28T09:23:55.164Z,17.15
2023-12-28T09:26:21.816Z,15.43
2023-12-28T09:28:50.501Z,15.70
2023-12-28T09:31:17.575Z,16.50
2023-12-28T09:33:44.890Z,22.05
2023-12-28T09:36:14.331Z,14.02
2023-12-28T09:38:41.180Z,11.85
2023-12-28T09:41:15.480Z,11.00
2023-12-28T09:43:56.672Z,9.65
2023-12-28T09:46:24.402Z,14.80
2023-12-28T09:48:51.351Z,12.15
2023-12-28T09:51:19.271Z,10.52
2023-12-28T09:53:46.217Z,7.65
2023-12-28T09:56:15.596Z,9.73
2023-12-28T09:58:43.773Z,10.43
2023-12-28T10:01:11.459Z,8.20
2023-12-28T10:03:38.773Z,6.32
2023-12-28T10:06:05.838Z,4.30
2023-12-28T10:08:33.686Z,5.97
2023-12-28T10:11:02.278Z,6.53
2023-12-28T10:13:30.361Z,9.43
2023-12-28T10:16:00.452Z,9.38
2023-12-28T10:18:27.595Z,8.05
2023-12-28T10:20:56.105Z,5.25
2023-12-28T10:23:23.212Z,2.95
2023-12-28T10:25:54.195Z,2.25
2023-12-28T10:28:21.108Z,6.25
2023-12-28T10:30:47.938Z,4.65
2023-12-28T10:33:15.869Z,6.40
2023-12-28T10:35:44.726Z,6.22
2023-12-28T10:38:14.985Z,8.30
2023-12-28T10:40:43.012Z,8.95
2023-12-28T10:43:15.351Z,6.18
2023-12-28T10:45:44.531Z,10.57
2023-12-28T10:48:13.155Z,13.20
2023-12-28T10:50:48.015Z,9.98
2023-12-28T10:53:32.607Z,12.68
2023-12-28T10:56:12.957Z,9.98
2023-12-28T10:59:08.306Z,8.80
2023-12-28T11:01:40.915Z,5.07
2023-12-28T11:04:26.235Z,3.85
2023-12-28T11:09:23.151Z,3.90
2023-12-28T11:11:52.499Z,5.68
2023-12-28T11:14:19.485Z,9.60
2023-12-28T11:16:46.942Z,10.40
2023-12-28T11:19:14.886Z,9.95
2023-12-28T11:21:42.682Z,2.88
2023-12-28T11:24:09.982Z,5.20
2023-12-28T11:26:36.815Z,5.72
2023-12-28T11:29:05.046Z,5.22
2023-12-28T11:31:36.367Z,3.10
2023-12-28T11:34:06.081Z,3.38
2023-12-28T11:36:37.811Z,5.40
2023-12-28T11:39:07.890Z,5.82
2023-12-28T11:41:37.359Z,4.50
2023-12-28T11:44:07.339Z,7.35
2023-12-28T11:46:36.888Z,5.05
2023-12-28T11:49:10.767Z,6.70
2023-12-28T11:51:40.266Z,3.10
2023-12-28T11:54:07.930Z,2.80
2023-12-28T11:56:35.166Z,4.38
2023-12-28T11:59:03.270Z,3.80
2023-12-28T12:01:30.059Z,3.38
2023-12-28T12:03:57.064Z,5.15
2023-12-28T12:06:25.381Z,6.25
2023-12-28T12:08:52.186Z,8.52
2023-12-28T12:11:19.823Z,7.47
2023-12-28T12:13:47.262Z,6.93
2023-12-28T12:16:17.301Z,5.93
2023-12-28T12:18:44.683Z,6.15
2023-12-28T12:21:11.625Z,8.57
2023-12-28T12:23:38.917Z,10.93
2023-12-28T12:26:08.865Z,13.65
2023-12-28T12:28:36.798Z,10.77
2023-12-28T12:31:04.507Z,7.38
2023-12-28T12:33:32.600Z,13.20
2023-12-28T12:35:59.735Z,14.10
2023-12-28T12:38:26.525Z,5.93
2023-12-28T12:40:54.128Z,8.15
2023-12-28T12:43:21.723Z,7.65
2023-12-28T12:45:49.503Z,6.97
2023-12-28T12:48:17.030Z,8.35
2023-12-28T12:50:45.126Z,9.30
2023-12-28T12:53:12.454Z,7.05
2023-12-28T12:55:47.594Z,8.15
2023-12-28T12:58:17.576Z,21.67
2023-12-28T13:00:46.685Z,9.40
2023-12-28T13:03:13.639Z,8.63
2023-12-28T13:05:40.800Z,12.38
2023-12-28T13:08:09.240Z,11.00
2023-12-28T13:10:35.994Z,12.70
2023-12-28T13:13:03.449Z,10.68
2023-12-28T13:15:30.408Z,10.95
2023-12-28T13:17:57.243Z,11.35
2023-12-28T13:20:23.948Z,11.43
2023-12-28T13:22:50.709Z,8.98
2023-12-28T13:25:17.521Z,10.20
2023-12-28T13:27:44.742Z,9.68
2023-12-28T13:30:13.392Z,10.25
2023-12-28T13:32:42.217Z,8.00
2023-12-28T13:35:11.287Z,13.30
2023-12-28T13:37:37.989Z,18.85
2023-12-28T13:40:06.192Z,19.45
2023-12-28T13:42:32.940Z,13.38
2023-12-28T13:44:59.655Z,20.60
2023-12-28T13:47:26.506Z,27.08
2023-12-28T13:49:53.366Z,15.88
2023-12-28T13:52:20.169Z,16.92
2023-12-28T13:54:46.937Z,18.42
2023-12-28T13:57:14.175Z,41.08
2023-12-28T13:59:40.892Z,32.63
2023-12-28T14:02:07.584Z,31.33
2023-12-28T14:04:34.480Z,31.13
2023-12-28T14:07:01.427Z,36.70
2023-12-28T14:09:28.282Z,36.05
2023-12-28T14:11:56.465Z,41.70
2023-12-28T14:14:23.283Z,33.90
2023-12-28T14:16:50.027Z,24.13
2023-12-28T14:19:16.866Z,22.38
2023-12-28T14:21:44.281Z,19.65
2023-12-28T14:24:11.566Z,17.80
2023-12-28T14:26:45.566Z,17.75
2023-12-28T14:29:16.654Z,16.10
2023-12-28T14:31:53.529Z,16.25
2023-12-28T14:34:21.410Z,17.27
2023-12-28T14:36:51.292Z,15.65
2023-12-28T14:39:22.500Z,17.67
2023-12-28T14:41:49.310Z,24.33
2023-12-28T14:44:16.090Z,43.30
2023-12-28T14:46:42.804Z,43.25
2023-12-28T14:49:09.737Z,44.70
2023-12-28T14:51:36.630Z,40.60
2023-12-28T14:54:03.701Z,37.25
2023-12-28T14:56:39.860Z,32.00
2023-12-28T14:59:11.732Z,32.42
2023-12-28T15:01:38.515Z,42.13
2023-12-28T15:04:05.552Z,38.92
2023-12-28T15:06:34.520Z,39.13
2023-12-28T15:09:01.254Z,38.42
2023-12-28T15:11:40.830Z,40.22
2023-12-28T15:14:22.223Z,66.57
2023-12-28T15:16:49.702Z,64.80
2023-12-28T15:19:17.224Z,56.83
2023-12-28T15:21:44.765Z,44.45
2023-12-28T15:24:12.083Z,47.60
2023-12-28T15:26:38.931Z,41.35
2023-12-28T15:29:05.760Z,53.53
2023-12-28T15:31:32.633Z,53.38
2023-12-28T15:33:59.575Z,49.83
2023-12-28T15:36:26.353Z,53.13
2023-12-28T15:38:53.034Z,48.70
2023-12-28T15:41:20.017Z,57.80
2023-12-28T15:43:47.175Z,51.65
2023-12-28T15:46:14.994Z,57.03
2023-12-28T15:48:45.157Z,58.28
2023-12-28T15:51:12.094Z,53.45
2023-12-28T15:53:38.802Z,59.95
2023-12-28T15:56:16.264Z,62.13
2023-12-28T15:58:46.462Z,60.55
2023-12-28T16:01:13.530Z,72.97
2023-12-28T16:03:40.578Z,86.43
2023-12-28T16:06:09.350Z,87.22
2023-12-28T16:08:37.402Z,88.57
2023-12-28T16:11:06.792Z,71.05
2023-12-28T16:13:35.939Z,73.00
2023-12-28T16:16:06.924Z,80.07
2023-12-28T16:18:36.165Z,97.25
2023-12-28T16:21:03.250Z,100.80
2023-12-28T16:23:30.328Z,86.70
2023-12-28T16:25:58.766Z,94.03
2023-12-28T16:28:25.462Z,96.43
2023-12-28T16:30:52.256Z,109.32
2023-12-28T16:33:20.002Z,104.32
2023-12-28T16:35:46.811Z,95.72
2023-12-28T16:38:13.585Z,95.65
2023-12-28T16:40:40.313Z,86.65
2023-12-28T16:43:07.760Z,86.63
2023-12-28T16:45:34.581Z,89.43
2023-12-28T16:48:03.208Z,83.45
2023-12-28T16:50:30.527Z,74.43
2023-12-28T16:52:57.286Z,74.47
2023-12-28T16:55:27.092Z,63.97
2023-12-28T16:57:54.452Z,60.55
2023-12-28T17:00:21.297Z,64.63
2023-12-28T17:02:50.525Z,61.80
2023-12-28T17:05:19.124Z,63.13
2023-12-28T17:07:46.656Z,68.70
2023-12-28T17:10:14.799Z,58.33
2023-12-28T17:12:44.801Z,53.88
2023-12-28T17:15:13.455Z,44.00
2023-12-28T17:17:46.146Z,50.42
2023-12-28T17:20:15.367Z,54.47
2023-12-28T17:22:51.543Z,62.08
2023-12-28T17:25:52.599Z,66.93
2023-12-28T17:28:24.463Z,67.63
2023-12-28T17:30:57.098Z,67.18
2023-12-28T17:33:25.593Z,69.57
2023-12-28T17:35:52.612Z,86.18
2023-12-28T17:38:19.659Z,80.10
2023-12-28T17:40:49.092Z,65.57
2023-12-28T17:43:38.719Z,53.63
2023-12-28T17:46:27.459Z,69.13
2023-12-28T17:48:59.567Z,66.20
2023-12-28T17:51:29.872Z,76.03
2023-12-28T17:53:56.958Z,74.25
2023-12-28T17:56:23.676Z,83.50
2023-12-28T17:58:50.748Z,79.93
2023-12-28T18:01:18.854Z,86.68
2023-12-28T18:03:47.311Z,94.57
2023-12-28T18:06:16.964Z,104.00
2023-12-28T18:08:43.655Z,100.70
2023-12-28T18:11:10.395Z,98.07
2023-12-28T18:13:37.226Z,97.60
2023-12-28T18:16:07.128Z,102.88
2023-12-28T18:18:35.584Z,101.65
2023-12-28T18:21:02.504Z,99.25
2023-12-28T18:23:30.275Z,83.78
2023-12-28T18:25:59.410Z,82.82
2023-12-28T18:28:26.155Z,80.55
2023-12-28T18:30:53.513Z,101.53
2023-12-28T18:33:24.896Z,123.00
2023-12-28T18:35:51.891Z,120.28
2023-12-28T18:38:20.964Z,108.13
2023-12-28T18:40:48.954Z,78.13
2023-12-28T18:43:16.250Z,84.75
2023-12-28T18:45:47.000Z,71.15
2023-12-28T18:48:15.583Z,74.07
2023-12-28T18:50:43.263Z,96.38
2023-12-28T18:53:11.372Z,87.70
2023-12-28T18:55:39.774Z,82.85
2023-12-28T18:58:10.067Z,69.97
2023-12-28T19:00:38.165Z,59.55
2023-12-28T19:03:05.754Z,66.32
2023-12-28T19:05:34.296Z,69.45
2023-12-28T19:08:01.640Z,67.35
2023-12-28T19:10:28.770Z,71.00
2023-12-28T19:12:56.235Z,80.75
2023-12-28T19:15:23.062Z,74.18
2023-12-28T19:17:49.976Z,75.93
2023-12-28T19:20:16.802Z,84.13
2023-12-28T19:22:43.737Z,84.47
2023-12-28T19:25:11.429Z,85.60
2023-12-28T19:27:38.208Z,70.53
2023-12-28T19:30:07.559Z,65.72
2023-12-28T19:32:34.497Z,66.65
2023-12-28T19:35:01.667Z,58.17
2023-12-28T19:37:28.536Z,74.38
2023-12-28T19:39:55.254Z,82.68
2023-12-28T19:42:22.019Z,63.30
2023-12-28T19:44:50.439Z,61.90
2023-12-28T19:47:17.218Z,64.40
2023-12-28T19:49:45.915Z,74.07
2023-12-28T19:52:14.806Z,74.53
2023-12-28T19:54:41.754Z,103.75
2023-12-28T19:57:08.750Z,92.38
2023-12-28T19:59:35.401Z,98.97
2023-12-28T20:02:03.407Z,71.95
2023-12-28T20:04:30.182Z,89.70
2023-12-28T20:06:57.722Z,110.22
2023-12-28T20:09:27.428Z,71.65
2023-12-28T20:11:55.467Z,74.30
2023-12-28T20:14:26.443Z,67.47
2023-12-28T20:16:53.366Z,65.47
2023-12-28T20:19:25.308Z,81.05
2023-12-28T20:21:54.027Z,68.53
2023-12-28T20:24:22.518Z,69.95
2023-12-28T20:26:49.493Z,75.20
2023-12-28T20:29:16.286Z,77.47
2023-12-28T20:31:44.499Z,69.38
2023-12-28T20:34:11.889Z,66.22
2023-12-28T20:36:38.848Z,64.03
2023-12-28T20:39:07.343Z,67.82
2023-12-28T20:41:34.349Z,67.60
2023-12-28T20:44:02.383Z,71.07
2023-12-28T20:46:30.157Z,65.75
2023-12-28T20:48:58.346Z,66.43
2023-12-28T20:51:26.797Z,67.72
2023-12-28T20:53:56.241Z,76.00
2023-12-28T20:56:23.395Z,71.07
2023-12-28T20:58:51.330Z,69.53
2023-12-28T21:01:18.202Z,74.28
2023-12-28T21:03:46.162Z,66.78
2023-12-28T21:06:12.893Z,57.00
2023-12-28T21:08:39.573Z,57.35
2023-12-28T21:11:06.382Z,48.58
2023-12-28T21:13:40.000Z,58.70
2023-12-28T21:16:08.517Z,60.05
2023-12-28T21:18:36.026Z,54.78
2023-12-28T21:21:10.236Z,69.07
2023-12-28T21:23:40.740Z,60.67
2023-12-28T21:26:07.695Z,61.58
2023-12-28T21:28:34.625Z,66.57
2023-12-28T21:31:01.823Z,71.72
2023-12-28T21:33:28.876Z,67.00
2023-12-28T21:35:55.940Z,75.60
2023-12-28T21:38:22.682Z,73.28
2023-12-28T21:40:49.396Z,63.67
2023-12-28T21:43:16.173Z,61.60
2023-12-28T21:45:43.628Z,59.43
2023-12-28T21:48:10.571Z,58.33
2023-12-28T21:50:38.132Z,51.47
2023-12-28T21:53:05.449Z,46.47
2023-12-28T21:55:32.155Z,47.03
2023-12-28T21:58:00.128Z,49.10
2023-12-28T22:00:27.082Z,50.38
2023-12-28T22:02:53.792Z,50.65
2023-12-28T22:05:20.486Z,50.47
2023-12-28T22:07:47.298Z,52.80
2023-12-28T22:10:14.267Z,51.20
2023-12-28T22:12:41.086Z,47.20
2023-12-28T22:15:08.442Z,51.88
2023-12-28T22:17:36.503Z,47.00
2023-12-28T22:20:08.651Z,50.22
2023-12-28T22:22:36.673Z,49.15
2023-12-28T22:25:06.141Z,48.43
2023-12-28T22:27:32.919Z,45.17
2023-12-28T22:29:59.608Z,46.95
2023-12-28T22:32:26.713Z,45.05
2023-12-28T22:34:53.680Z,43.80
2023-12-28T22:37:20.464Z,41.50
2023-12-28T22:39:47.208Z,42.47
2023-12-28T22:42:21.307Z,53.87
2023-12-28T22:44:48.014Z,49.00
2023-12-28T22:47:15.020Z,44.50
2023-12-28T22:49:42.195Z,44.77
2023-12-28T22:52:10.264Z,41.83
2023-12-28T22:54:39.613Z,45.47
2023-12-28T22:57:06.388Z,44.40
2023-12-28T22:59:33.157Z,39.33
2023-12-28T23:01:59.987Z,40.13
2023-12-28T23:04:26.731Z,42.47
2023-12-28T23:06:53.443Z,46.63
2023-12-28T23:09:20.796Z,44.33
2023-12-28T23:11:47.500Z,36.20
2023-12-28T23:14:14.217Z,39.10
2023-12-28T23:16:41.010Z,33.90
2023-12-28T23:19:07.842Z,47.67
2023-12-28T23:21:36.025Z,32.38
2023-12-28T23:24:02.787Z,35.07
2023-12-28T23:26:29.617Z,29.17
2023-12-28T23:28:56.380Z,29.67
2023-12-28T23:31:26.038Z,30.47
2023-12-28T23:33:53.515Z,30.70
2023-12-28T23:36:21.250Z,31.47
2023-12-28T23:38:49.051Z,36.17
2023-12-28T23:41:15.831Z,30.97
2023-12-28T23:43:42.630Z,27.80
2023-12-28T23:46:09.475Z,25.17
2023-12-28T23:48:36.505Z,24.03
2023-12-28T23:51:06.809Z,31.87
2023-12-28T23:53:33.465Z,27.53
2023-12-28T23:56:00.209Z,33.87
2023-12-28T23:58:28.599Z,29.77
